Time;durP1;ratioP1;P1;durP2;ratioP2;P2;SDS_P1;SDS_P2;PMS_P1;PMS_P2;Temp;Humidity;BMP_temperature;BMP_pressure;BME280_temperature;BME280_humidity;BME280_pressure;Samples;Min_cycle;Max_cycle;Signal;HPM_P1;HPM_P2
2023/05/11 00:01:44;;;;;;;1.57;1.10;;;10.30;99.90;;;10.94;100.00;97940.88;4919748;29;20528;-79
2023/05/11 00:04:13;;;;;;;1.73;1.00;;;10.20;99.90;;;10.95;100.00;97947.75;4921976;29;20499;-77
2023/05/11 00:06:41;;;;;;;3.43;1.20;;;10.20;99.90;;;10.97;100.00;97943.13;4925437;29;20470;-78
2023/05/11 00:09:10;;;;;;;2.87;1.23;;;10.20;99.90;;;10.95;100.00;97945.13;4924220;29;20467;-77
2023/05/11 00:11:40;;;;;;;2.30;1.30;;;10.20;99.90;;;10.98;100.00;97947.34;4920985;29;20485;-78
2023/05/11 00:14:08;;;;;;;2.77;1.43;;;10.20;99.90;;;10.89;100.00;97940.66;4923770;29;20474;-78
2023/05/11 00:16:38;;;;;;;5.60;1.40;;;10.20;99.90;;;10.85;100.00;97942.03;4924198;29;21016;-78
2023/05/11 00:19:06;;;;;;;6.50;1.40;;;10.10;99.90;;;10.84;100.00;97948.25;4920248;29;20562;-78
2023/05/11 00:21:35;;;;;;;2.13;1.10;;;10.10;99.90;;;10.84;100.00;97940.41;4924206;29;20462;-78
2023/05/11 00:24:04;;;;;;;1.67;1.17;;;10.10;99.90;;;10.74;100.00;97945.19;4921822;29;20537;-78
2023/05/11 00:26:33;;;;;;;5.00;1.40;;;10.00;99.90;;;10.68;100.00;97948.56;4921954;29;21005;-78
2023/05/11 00:29:03;;;;;;;1.90;1.20;;;10.00;99.90;;;10.60;100.00;97942.47;4925530;29;20466;-78
2023/05/11 00:31:32;;;;;;;2.07;1.40;;;10.00;99.90;;;10.60;100.00;97941.66;4925384;29;20552;-78
2023/05/11 00:34:01;;;;;;;1.37;1.20;;;10.00;99.90;;;10.58;100.00;97936.63;4923621;29;20474;-78
2023/05/11 00:36:32;;;;;;;1.83;1.33;;;9.90;99.90;;;10.58;100.00;97939.25;4926247;29;20498;-78
2023/05/11 00:39:00;;;;;;;5.10;1.43;;;9.90;99.90;;;10.62;100.00;97939.66;4924670;29;20521;-77
2023/05/11 00:41:29;;;;;;;1.30;1.07;;;10.00;99.90;;;10.62;100.00;97944.09;4921779;29;20533;-78
2023/05/11 00:43:58;;;;;;;1.43;1.20;;;9.90;99.90;;;10.61;100.00;97938.06;4922465;29;21385;-77
2023/05/11 00:46:28;;;;;;;2.63;1.30;;;9.90;99.90;;;10.60;100.00;97936.44;4924681;29;20494;-78
2023/05/11 00:48:57;;;;;;;1.47;1.17;;;9.80;99.90;;;10.55;100.00;97938.81;4924741;29;20466;-79
2023/05/11 00:51:26;;;;;;;2.73;1.30;;;9.80;99.90;;;10.53;100.00;97941.59;4921105;29;21024;-79
2023/05/11 00:53:56;;;;;;;2.27;1.30;;;9.80;99.90;;;10.51;100.00;97941.00;4923426;29;20985;-78
2023/05/11 00:56:25;;;;;;;5.40;1.23;;;9.80;99.90;;;10.48;100.00;97935.34;4924356;29;20555;-78
2023/05/11 00:58:55;;;;;;;2.60;1.20;;;9.80;99.90;;;10.43;100.00;97938.50;4923933;29;20526;-78
2023/05/11 01:01:24;;;;;;;3.03;1.10;;;9.80;99.90;;;10.33;100.00;97940.63;4924282;29;20514;-78
2023/05/11 01:03:55;;;;;;;1.73;1.23;;;9.70;99.90;;;10.32;100.00;97939.00;4925039;29;20562;-78
2023/05/11 01:06:41;;;;;;;3.30;1.40;;;9.70;99.90;;;10.30;100.00;97933.19;4926491;29;20482;-79
2023/05/11 01:09:24;;;;;;;2.43;1.13;;;9.60;99.90;;;10.32;100.00;97933.78;4924748;29;21104;-78
2023/05/11 01:12:08;;;;;;;1.70;1.20;;;9.60;99.90;;;10.30;100.00;97932.38;4924369;29;20516;-78
2023/05/11 01:14:43;;;;;;;2.60;1.30;;;9.60;99.90;;;10.30;100.00;97935.78;4924046;29;20476;-78
2023/05/11 01:17:30;;;;;;;1.30;1.20;;;9.60;99.90;;;10.22;100.00;97935.91;4924822;29;20852;-78
2023/05/11 01:20:07;;;;;;;1.63;1.27;;;9.60;99.90;;;10.14;100.00;97938.63;4926319;29;20470;-79
2023/05/11 01:23:05;;;;;;;1.93;1.33;;;9.50;99.90;;;10.06;100.00;97934.34;4924932;29;20557;-78
2023/05/11 01:26:10;;;;;;;1.73;1.10;;;9.50;99.90;;;10.09;100.00;97936.56;4882860;29;20557;-78
2023/05/11 01:29:07;;;;;;;3.10;1.27;;;9.50;99.90;;;10.08;100.00;97931.53;4923478;29;20565;-79
2023/05/11 01:31:43;;;;;;;2.30;1.43;;;9.40;99.90;;;10.10;100.00;97929.53;4924788;29;20479;-78
2023/05/11 01:34:18;;;;;;;1.73;1.10;;;9.40;99.90;;;10.12;100.00;97930.16;4924224;29;20450;-77
2023/05/11 01:36:54;;;;;;;1.40;1.30;;;9.40;99.90;;;10.10;100.00;97929.53;4939038;28;21022;-78
2023/05/11 01:39:33;;;;;;;1.13;1.00;;;9.40;99.90;;;10.14;100.00;97938.63;4924839;29;20509;-78
2023/05/11 01:42:09;;;;;;;2.00;1.43;;;9.40;99.90;;;10.06;100.00;97928.31;4924248;29;20570;-78
2023/05/11 01:44:44;;;;;;;2.23;1.33;;;9.40;99.90;;;10.03;100.00;97939.13;4922640;29;21070;-78
2023/05/11 01:47:16;;;;;;;2.47;1.53;;;9.30;99.90;;;10.06;100.00;97949.19;4924211;29;20715;-78
2023/05/11 01:49:46;;;;;;;3.43;1.03;;;9.30;99.90;;;10.07;100.00;97941.16;4924879;29;20588;-77
2023/05/11 01:52:16;;;;;;;2.50;1.33;;;9.30;99.90;;;10.04;100.00;97940.72;4922737;29;21491;-78
2023/05/11 01:54:50;;;;;;;4.13;1.20;;;9.30;99.90;;;10.04;100.00;97940.72;4924673;29;20541;-78
2023/05/11 01:57:21;;;;;;;1.70;1.20;;;9.30;99.90;;;10.00;100.00;97939.47;4923038;29;21156;-78
2023/05/11 01:59:53;;;;;;;4.83;2.00;;;9.30;99.90;;;9.97;100.00;97934.63;4923001;29;20506;-78
2023/05/11 02:02:26;;;;;;;1.90;1.53;;;9.30;99.90;;;9.88;100.00;97935.75;4923559;29;21074;-78
2023/05/11 02:04:56;;;;;;;1.90;1.30;;;9.30;99.90;;;9.85;100.00;97938.72;4925533;29;20471;-77
2023/05/11 02:07:29;;;;;;;2.07;1.30;;;9.30;99.90;;;9.82;100.00;97941.72;4927038;29;20478;-78
2023/05/11 02:09:59;;;;;;;12.33;1.10;;;9.20;99.90;;;9.86;100.00;97941.13;4927813;29;20521;-79
2023/05/11 02:12:30;;;;;;;1.50;1.40;;;9.20;99.90;;;9.84;100.00;97937.91;4926083;29;20538;-78
2023/05/11 02:15:01;;;;;;;1.60;1.10;;;9.10;99.90;;;9.81;100.00;97940.09;4927001;29;20502;-78
2023/05/11 02:17:34;;;;;;;1.80;1.30;;;9.10;99.90;;;9.76;100.00;97935.41;4922773;29;20536;-78
2023/05/11 02:20:06;;;;;;;1.97;1.30;;;9.10;99.90;;;9.75;100.00;97939.03;4922224;29;21201;-78
2023/05/11 02:22:36;;;;;;;1.40;1.27;;;9.00;99.90;;;9.78;100.00;97940.47;4923219;29;20494;-77
2023/05/11 02:25:10;;;;;;;1.20;1.03;;;9.10;99.90;;;9.80;100.00;97943.69;4923493;29;20473;-77
2023/05/11 02:27:38;;;;;;;2.80;1.20;;;9.00;99.90;;;9.79;100.00;97942.88;4923747;29;20474;-78
2023/05/11 02:30:08;;;;;;;1.30;1.20;;;9.00;99.90;;;9.72;100.00;97939.38;4922828;29;20973;-78
2023/05/11 02:32:48;;;;;;;4.00;1.27;;;9.00;99.90;;;9.69;100.00;97934.53;4923656;29;21151;-78
2023/05/11 02:35:23;;;;;;;1.93;1.67;;;9.00;99.90;;;9.69;100.00;97941.53;4924094;29;21005;-79
2023/05/11 02:37:58;;;;;;;3.27;1.30;;;9.00;99.90;;;9.68;100.00;97939.94;4923985;29;21252;-78
2023/05/11 02:40:33;;;;;;;1.50;1.17;;;8.90;99.90;;;9.60;100.00;97941.66;4923630;29;20519;-78
2023/05/11 02:43:10;;;;;;;1.80;1.37;;;9.00;99.90;;;9.57;100.00;97936.81;4923334;29;20477;-78
2023/05/11 02:45:44;;;;;;;1.43;1.10;;;8.90;99.90;;;9.49;100.00;97936.91;4923134;29;20903;-78
2023/05/11 02:48:22;;;;;;;7.00;1.00;;;8.90;99.90;;;9.47;100.00;97940.72;4922549;29;20494;-78
2023/05/11 02:50:56;;;;;;;5.80;1.20;;;8.90;99.90;;;9.50;100.00;97938.53;4922410;29;21008;-77
2023/05/11 02:53:28;;;;;;;4.70;1.67;;;8.80;99.90;;;9.51;100.00;97940.13;4923788;29;20471;-78
2023/05/11 02:56:00;;;;;;;1.73;1.10;;;8.80;99.90;;;9.51;100.00;97944.59;4923017;29;20464;-77
2023/05/11 02:58:30;;;;;;;6.30;1.37;;;8.80;99.90;;;9.49;100.00;97936.91;4921659;29;20525;-78
2023/05/11 03:01:00;;;;;;;6.70;1.20;;;8.80;99.90;;;9.49;100.00;97943.94;4922150;29;20518;-78
2023/05/11 03:03:30;;;;;;;3.83;1.57;;;8.80;99.90;;;9.51;100.00;97940.13;4921753;29;20838;-78
2023/05/11 03:05:59;;;;;;;2.00;1.40;;;8.80;99.90;;;9.51;100.00;97945.38;4923382;29;20928;-78
2023/05/11 03:08:29;;;;;;;1.73;1.53;;;8.80;99.90;;;9.48;100.00;97948.34;4921700;29;20502;-78
2023/05/11 03:10:59;;;;;;;3.63;1.70;;;8.90;99.90;;;9.49;100.00;97951.75;4918954;29;21096;-78
2023/05/11 03:13:29;;;;;;;1.50;1.40;;;8.90;99.90;;;9.53;100.00;97943.41;4921619;29;20470;-78
2023/05/11 03:16:01;;;;;;;5.10;1.53;;;8.90;99.90;;;9.54;100.00;97945.00;4918114;29;20478;-77
2023/05/11 03:18:34;;;;;;;2.60;1.30;;;8.90;99.90;;;9.47;100.00;97944.13;4916493;29;20656;-77
2023/05/11 03:21:03;;;;;;;1.20;1.10;;;8.80;99.90;;;9.48;100.00;97945.72;4913352;29;20459;-76
2023/05/11 03:23:35;;;;;;;1.90;1.50;;;8.80;99.90;;;9.46;100.00;97941.69;4916343;29;20795;-77
2023/05/11 03:26:04;;;;;;;1.67;1.10;;;8.80;99.90;;;9.47;100.00;97938.91;4919917;29;20580;-76
2023/05/11 03:28:36;;;;;;;1.40;1.30;;;8.80;99.90;;;9.39;100.00;97941.63;4919504;29;20924;-77
2023/05/11 03:31:05;;;;;;;1.67;1.40;;;8.80;99.90;;;9.37;100.00;97946.19;4922406;29;20933;-77
2023/05/11 03:33:36;;;;;;;6.17;1.50;;;8.80;99.90;;;9.40;100.00;97942.44;4922381;29;20549;-78
2023/05/11 03:36:08;;;;;;;1.57;1.47;;;8.80;99.90;;;9.37;100.00;97945.41;4922500;29;20905;-77
2023/05/11 03:38:40;;;;;;;3.23;1.70;;;8.80;99.90;;;9.41;100.00;97944.84;4921318;29;20555;-78
2023/05/11 03:41:09;;;;;;;2.03;1.60;;;8.80;99.90;;;9.46;100.00;97947.72;4920180;29;20555;-77
2023/05/11 03:43:38;;;;;;;2.53;2.20;;;8.80;99.90;;;9.50;100.00;97946.38;4921412;29;20826;-77
2023/05/11 03:46:10;;;;;;;3.93;2.60;;;8.80;99.90;;;9.52;100.00;97951.41;4913518;29;20478;-78
2023/05/11 03:48:42;;;;;;;3.93;2.40;;;8.90;99.90;;;9.59;100.00;97945.28;4919206;29;20466;-76
2023/05/11 03:51:11;;;;;;;6.17;3.23;;;8.90;99.90;;;9.58;100.00;97942.81;4917910;29;20949;-78
2023/05/11 03:53:40;;;;;;;3.60;2.50;;;9.00;99.90;;;9.61;100.00;97945.09;4922259;29;20908;-78
2023/05/11 03:56:09;;;;;;;3.50;2.70;;;9.00;99.90;;;9.64;100.00;97944.72;4921508;29;20479;-77
2023/05/11 03:58:40;;;;;;;3.00;2.33;;;9.00;99.90;;;9.57;100.00;97939.44;4920596;29;20530;-77
2023/05/11 04:01:09;;;;;;;6.00;2.50;;;9.00;99.90;;;9.45;100.00;97940.88;4921473;29;21106;-78
2023/05/11 04:03:49;;;;;;;2.33;1.93;;;9.00;99.90;;;9.35;100.00;97945.56;4920625;29;20987;-77
2023/05/11 04:06:19;;;;;;;3.03;2.10;;;8.90;99.90;;;9.42;100.00;97946.47;4921625;29;20659;-77
2023/05/11 04:08:47;;;;;;;4.40;2.13;;;8.90;99.90;;;9.50;100.00;97938.53;4921311;29;20475;-78
2023/05/11 04:11:16;;;;;;;3.50;3.10;;;8.80;99.90;;;9.57;100.00;97941.22;4920252;29;20558;-78
2023/05/11 04:13:44;;;;;;;3.17;2.37;;;8.90;99.90;;;9.58;100.00;97935.81;4922345;29;20524;-77
2023/05/11 04:16:13;;;;;;;3.13;2.57;;;8.90;99.90;;;9.58;100.00;97938.41;4918884;29;20475;-77
2023/05/11 04:18:42;;;;;;;4.00;3.03;;;9.00;99.90;;;9.60;100.00;97938.25;4914687;29;20590;-77
2023/05/11 04:21:12;;;;;;;8.80;4.20;;;8.90;99.90;;;9.61;100.00;97943.28;4918350;29;21184;-76
2023/05/11 04:23:40;;;;;;;4.60;3.03;;;9.00;99.90;;;9.63;100.00;97939.69;4916629;29;20606;-77
2023/05/11 04:26:09;;;;;;;5.33;2.70;;;9.00;99.90;;;9.54;100.00;97937.16;4917401;29;20921;-78
2023/05/11 04:28:38;;;;;;;3.10;2.50;;;9.00;99.90;;;9.52;100.00;97941.78;4919625;29;20507;-77
2023/05/11 04:31:07;;;;;;;5.53;2.57;;;8.90;99.90;;;9.47;100.00;97944.13;4917477;29;20470;-76
2023/05/11 04:33:36;;;;;;;2.37;2.00;;;8.90;99.90;;;9.46;100.00;97947.72;4913974;29;20823;-77
2023/05/11 04:36:06;;;;;;;6.77;2.47;;;8.90;99.90;;;9.46;100.00;97945.13;4917479;29;20488;-78
2023/05/11 04:38:36;;;;;;;2.90;2.27;;;8.90;99.90;;;9.44;100.00;97947.09;4914346;29;20597;-78
2023/05/11 04:41:07;;;;;;;3.00;2.53;;;8.80;99.90;;;9.43;100.00;97942.88;4923534;29;20470;-78
2023/05/11 04:43:35;;;;;;;5.53;2.40;;;8.80;99.90;;;9.47;100.00;97944.13;4926446;29;20486;-78
2023/05/11 04:46:04;;;;;;;3.67;2.60;;;8.80;99.90;;;9.54;100.00;97950.22;4927900;29;20466;-78
2023/05/11 04:48:33;;;;;;;4.17;2.73;;;8.90;99.90;;;9.58;100.00;97955.88;4926677;29;20498;-78
2023/05/11 04:51:05;;;;;;;4.90;3.00;;;8.90;99.90;;;9.60;100.00;97949.50;4928055;29;20471;-78
2023/05/11 04:54:00;;;;;;;3.10;2.80;;;8.90;99.90;;;9.63;100.00;97953.53;4926882;29;20969;-78
2023/05/11 04:56:28;;;;;;;3.63;3.00;;;9.00;99.90;;;9.70;100.00;97953.63;4927168;29;20479;-78
2023/05/11 04:58:57;;;;;;;4.73;2.67;;;9.00;99.90;;;9.69;100.00;97963.25;4926829;29;20498;-78
2023/05/11 05:01:26;;;;;;;3.50;2.57;;;9.00;99.90;;;9.71;100.00;97963.88;4925135;29;20490;-79
2023/05/11 05:03:55;;;;;;;4.20;2.50;;;9.00;99.90;;;9.72;100.00;97962.09;4924997;29;20467;-78
2023/05/11 05:06:24;;;;;;;3.50;2.50;;;9.00;99.90;;;9.70;100.00;97967.47;4924987;29;20470;-78
2023/05/11 05:08:55;;;;;;;3.30;3.00;;;9.00;99.90;;;9.73;100.00;97974.13;4926097;29;20475;-78
2023/05/11 05:11:24;;;;;;;3.23;2.70;;;9.00;99.90;;;9.71;100.00;97970.91;4925877;29;20474;-78
2023/05/11 05:13:54;;;;;;;2.70;2.50;;;9.00;99.90;;;9.67;100.00;97969.66;4925309;29;20478;-78
2023/05/11 05:16:23;;;;;;;4.03;2.27;;;9.00;99.90;;;9.65;100.00;97975.03;4926219;29;21009;-78
2023/05/11 05:18:51;;;;;;;3.20;2.90;;;9.00;99.90;;;9.65;100.00;97971.66;4927237;29;20851;-78
2023/05/11 05:21:20;;;;;;;2.90;2.60;;;9.00;99.90;;;9.71;100.00;97986.56;4926528;29;20469;-78
2023/05/11 05:23:49;;;;;;;2.80;2.33;;;9.00;99.90;;;9.77;100.00;97980.63;4926782;29;20505;-80
2023/05/11 05:26:20;;;;;;;3.10;2.60;;;9.00;99.90;;;9.74;100.00;97986.22;4926694;29;20549;-78
2023/05/11 05:28:48;;;;;;;3.67;2.33;;;9.10;99.90;;;9.81;100.00;97971.44;4924767;29;20480;-79
2023/05/11 05:31:18;;;;;;;1.97;1.77;;;9.10;99.90;;;9.79;100.00;97976.03;4926470;29;20569;-79
2023/05/11 05:33:47;;;;;;;3.27;2.77;;;9.20;99.90;;;9.82;100.00;97973.84;4926320;29;20549;-78
2023/05/11 05:36:15;;;;;;;3.33;2.40;;;9.20;99.90;;;9.84;100.00;97976.28;4926025;29;20463;-78
2023/05/11 05:38:43;;;;;;;2.00;1.80;;;9.20;99.90;;;9.88;100.00;97972.31;4925900;29;20502;-78
2023/05/11 05:41:12;;;;;;;2.70;2.20;;;9.20;99.90;;;9.89;100.00;97974.72;4932563;29;20494;-78
2023/05/11 05:43:42;;;;;;;2.87;2.10;;;9.20;99.90;;;9.91;100.00;97977.16;4932480;29;20545;-79
2023/05/11 05:46:11;;;;;;;2.40;2.20;;;9.20;99.90;;;9.93;100.00;97972.53;4930942;29;20466;-78
2023/05/11 05:48:40;;;;;;;3.27;2.80;;;9.20;99.90;;;9.97;100.00;97976.41;4933139;29;20473;-78
2023/05/11 05:51:09;;;;;;;1.70;1.60;;;9.30;99.90;;;9.94;100.00;97976.78;4932145;29;20478;-78
2023/05/11 05:53:38;;;;;;;2.50;2.30;;;9.30;99.90;;;9.93;100.00;97980.38;4931410;29;20473;-78
2023/05/11 05:56:07;;;;;;;2.00;1.83;;;9.30;99.90;;;9.92;100.00;97984.81;4932810;29;20470;-78
2023/05/11 05:58:36;;;;;;;2.60;2.40;;;9.30;99.90;;;9.92;100.00;97981.41;4932924;29;20957;-78
2023/05/11 06:01:06;;;;;;;2.93;2.60;;;9.30;99.90;;;9.94;100.00;97985.44;4932325;29;20507;-78
2023/05/11 06:03:35;;;;;;;4.00;3.63;;;9.30;99.90;;;9.94;100.00;97982.00;4930684;29;20496;-78
2023/05/11 06:06:04;;;;;;;2.60;2.40;;;9.30;99.90;;;9.95;100.00;97984.44;4932100;29;20470;-80
2023/05/11 06:08:33;;;;;;;2.80;2.60;;;9.30;99.90;;;9.97;100.00;97986.88;4932573;29;20470;-78
2023/05/11 06:11:01;;;;;;;3.10;2.23;;;9.30;99.90;;;9.96;100.00;97980.03;4932636;29;20581;-78
2023/05/11 06:13:29;;;;;;;3.30;2.40;;;9.20;99.90;;;9.96;100.00;97986.06;4933898;29;20502;-78
2023/05/11 06:15:58;;;;;;;2.67;2.43;;;9.30;99.90;;;9.96;100.00;97983.44;4932470;29;20466;-79
2023/05/11 06:18:30;;;;;;;3.53;2.57;;;9.30;99.90;;;10.03;100.00;97981.72;4932536;29;20497;-78
2023/05/11 06:20:59;;;;;;;3.23;2.47;;;9.30;99.90;;;10.06;100.00;97983.16;4931585;29;20498;-78
2023/05/11 06:23:28;;;;;;;3.97;2.97;;;9.30;99.90;;;10.09;100.00;97980.19;4931018;29;20481;-79
2023/05/11 06:25:57;;;;;;;3.77;2.40;;;9.40;99.90;;;10.11;100.00;97980.78;4933078;29;20493;-78
2023/05/11 06:28:26;;;;;;;2.70;2.20;;;9.40;99.90;;;10.11;100.00;97979.00;4932251;29;20517;-78
2023/05/11 06:30:58;;;;;;;2.60;2.40;;;9.50;99.90;;;10.13;100.00;97973.59;4930914;29;20545;-78
2023/05/11 06:33:27;;;;;;;3.30;2.93;;;9.50;99.90;;;10.21;100.00;97972.66;4932993;29;20554;-78
2023/05/11 06:35:57;;;;;;;4.50;2.70;;;9.50;99.90;;;10.30;100.00;97971.56;4933450;29;20529;-78
2023/05/11 06:38:27;;;;;;;2.70;2.40;;;9.60;99.90;;;10.36;100.00;97968.19;4929914;29;20513;-78
2023/05/11 06:40:56;;;;;;;2.83;2.50;;;9.70;99.90;;;10.40;100.00;97970.25;4933416;29;20500;-78
2023/05/11 06:43:25;;;;;;;3.30;2.40;;;9.70;99.90;;;10.47;100.00;97971.13;4932031;29;20466;-78
2023/05/11 06:45:54;;;;;;;8.93;2.97;;;9.80;99.90;;;10.56;100.00;97961.34;4931132;29;20895;-79
2023/05/11 06:48:24;;;;;;;3.83;3.03;;;9.90;99.90;;;10.62;100.00;97965.00;4931386;29;20985;-78
2023/05/11 06:50:53;;;;;;;3.50;2.70;;;10.00;99.90;;;10.66;100.00;97961.00;4930554;29;21045;-78
2023/05/11 06:53:23;;;;;;;5.70;3.30;;;10.10;99.90;;;10.69;100.00;97965.88;4929086;29;20550;-78
2023/05/11 06:55:54;;;;;;;3.17;2.70;;;10.20;99.90;;;10.71;100.00;97964.69;4929728;29;20997;-78
2023/05/11 06:58:23;;;;;;;6.97;2.73;;;10.10;99.90;;;10.78;100.00;97964.72;4927436;29;20493;-78
2023/05/11 07:00:53;;;;;;;2.40;2.20;;;10.20;99.90;;;10.84;100.00;97953.50;4929380;29;20502;-78
2023/05/11 07:03:21;;;;;;;4.33;2.60;;;10.30;99.90;;;10.86;100.00;97957.56;4928899;29;20521;-78
2023/05/11 07:05:50;;;;;;;3.07;2.70;;;10.30;99.90;;;10.93;100.00;97962.84;4928989;29;20471;-78
2023/05/11 07:08:19;;;;;;;2.70;2.50;;;10.30;99.90;;;10.98;100.00;97955.19;4929306;29;20467;-78
2023/05/11 07:10:49;;;;;;;3.50;2.87;;;10.40;99.90;;;11.05;100.00;97958.66;4928862;29;21070;-78
2023/05/11 07:13:19;;;;;;;4.23;2.73;;;10.40;99.90;;;11.11;100.00;97957.91;4928881;29;20557;-78
2023/05/11 07:15:48;;;;;;;3.37;2.70;;;10.50;99.90;;;11.18;100.00;97961.34;4928438;29;20466;-78
2023/05/11 07:18:17;;;;;;;7.67;2.50;;;10.60;99.90;;;11.24;100.00;97955.38;4929134;29;20467;-78
2023/05/11 07:20:48;;;;;;;3.03;2.50;;;10.70;99.90;;;11.31;100.00;97951.00;4928826;29;20557;-78
2023/05/11 07:23:18;;;;;;;5.50;2.90;;;10.70;99.90;;;11.39;100.00;97957.84;4911597;29;20505;-78
2023/05/11 07:25:48;;;;;;;2.60;2.20;;;10.80;99.90;;;11.46;100.00;97963.91;4929222;29;20528;-78
2023/05/11 07:28:17;;;;;;;3.23;2.60;;;10.90;99.90;;;11.53;100.00;97960.34;4928361;29;20466;-79
2023/05/11 07:30:48;;;;;;;3.80;2.40;;;11.00;99.90;;;11.60;100.00;97955.94;4928665;29;20466;-78
2023/05/11 07:33:16;;;;;;;2.77;2.07;;;11.10;99.90;;;11.66;100.00;97958.78;4927455;29;20458;-78
2023/05/11 07:35:45;;;;;;;3.00;2.33;;;11.20;99.90;;;11.73;100.00;97959.66;4927325;29;20526;-78
2023/05/11 07:38:13;;;;;;;3.67;2.10;;;11.20;99.90;;;11.80;100.00;97956.03;4928078;29;21068;-79
2023/05/11 07:40:42;;;;;;;1.80;1.70;;;11.20;99.90;;;11.87;100.00;97948.22;4927133;29;20549;-78
2023/05/11 07:43:13;;;;;;;4.63;2.37;;;11.30;99.90;;;11.94;100.00;97952.44;4927281;29;20808;-79
2023/05/11 07:45:42;;;;;;;2.10;1.90;;;11.40;99.90;;;12.00;100.00;97951.69;4927019;29;20485;-78
2023/05/11 07:48:10;;;;;;;3.63;1.73;;;11.50;99.90;;;12.07;100.00;97949.06;4928687;29;20467;-78
2023/05/11 07:50:40;;;;;;;3.53;1.83;;;11.50;99.90;;;12.11;100.00;97953.69;4927000;29;20473;-78
2023/05/11 07:53:09;;;;;;;4.03;1.70;;;11.50;99.90;;;12.18;100.00;97951.09;4927641;29;20973;-79
2023/05/11 07:55:40;;;;;;;2.00;1.80;;;11.70;99.90;;;12.24;100.00;97946.88;4928105;29;20475;-78
2023/05/11 07:58:08;;;;;;;1.87;1.63;;;11.70;99.90;;;12.31;100.00;97943.25;4927095;29;20501;-78
2023/05/11 08:00:39;;;;;;;2.17;1.70;;;11.80;99.90;;;12.36;100.00;97943.44;4926818;29;20562;-78
2023/05/11 08:03:07;;;;;;;2.37;1.60;;;11.80;99.90;;;12.42;100.00;97945.28;4927789;29;20470;-78
2023/05/11 08:05:37;;;;;;;2.43;1.87;;;11.90;99.90;;;12.48;100.00;97947.09;4927388;29;20984;-77
2023/05/11 08:08:07;;;;;;;4.67;1.57;;;11.90;99.90;;;12.56;100.00;97941.63;4928715;29;20925;-78
2023/05/11 08:10:36;;;;;;;1.87;1.57;;;11.90;99.90;;;12.63;100.00;97940.84;4927807;29;21036;-79
2023/05/11 08:13:05;;;;;;;2.43;1.50;;;12.00;99.90;;;12.71;100.00;97948.50;4927993;29;20463;-78
2023/05/11 08:15:34;;;;;;;4.80;1.60;;;12.00;99.90;;;12.78;100.00;97946.66;4928516;29;20533;-78
2023/05/11 08:18:05;;;;;;;2.00;1.80;;;12.10;99.90;;;12.85;100.00;97943.03;4927283;29;20470;-78
2023/05/11 08:20:34;;;;;;;1.47;1.37;;;12.30;99.90;;;12.92;100.00;97950.91;4926839;29;20534;-78
2023/05/11 08:23:03;;;;;;;1.73;1.23;;;12.30;99.90;;;12.98;100.00;97950.88;4926373;29;20474;-78
2023/05/11 08:25:31;;;;;;;1.63;1.40;;;12.30;99.90;;;13.07;100.00;97946.25;4926096;29;20506;-79
2023/05/11 08:28:00;;;;;;;3.10;1.23;;;12.40;99.90;;;13.17;100.00;97945.84;4926668;29;20473;-78
2023/05/11 08:30:29;;;;;;;2.00;1.30;;;12.60;99.90;;;13.23;100.00;97943.19;4927076;29;20474;-78
2023/05/11 08:32:58;;;;;;;1.97;1.50;;;12.70;99.90;;;13.31;100.00;97934.28;4922281;29;20557;-78
2023/05/11 08:35:29;;;;;;;2.10;1.30;;;12.80;99.90;;;13.38;100.00;97938.50;4924892;29;20502;-78
2023/05/11 08:37:57;;;;;;;1.63;1.40;;;12.90;99.90;;;13.45;100.00;97941.94;4927876;29;20514;-78
2023/05/11 08:40:27;;;;;;;3.93;1.30;;;13.00;99.90;;;13.51;100.00;97943.72;4926755;29;20533;-78
2023/05/11 08:42:56;;;;;;;1.30;1.20;;;13.00;99.90;;;13.54;100.00;97935.41;4925825;29;20518;-78
2023/05/11 08:45:26;;;;;;;1.40;1.30;;;13.10;99.90;;;13.64;100.00;97939.44;4926405;29;21450;-78
2023/05/11 08:47:56;;;;;;;1.47;1.20;;;13.20;99.90;;;13.71;100.00;97932.34;4925248;29;20847;-78
2023/05/11 08:50:25;;;;;;;1.53;1.40;;;13.20;99.90;;;13.80;100.00;97939.75;4926663;29;20518;-78
2023/05/11 08:52:55;;;;;;;1.30;1.20;;;13.30;99.90;;;13.87;100.00;97937.09;4925684;29;20529;-78
2023/05/11 08:55:27;;;;;;;1.20;1.10;;;13.50;99.90;;;13.93;100.00;97931.78;4927784;29;21043;-78
2023/05/11 08:57:58;;;;;;;2.00;1.30;;;13.50;99.90;;;14.00;100.00;97929.94;4927400;29;21216;-78
2023/05/11 09:00:28;;;;;;;1.47;1.27;;;13.50;99.90;;;14.05;100.00;97932.75;4927245;29;20516;-78
2023/05/11 09:02:58;;;;;;;1.40;1.20;;;13.60;99.90;;;14.10;100.00;97937.34;4927281;29;20474;-78
2023/05/11 09:05:28;;;;;;;3.00;1.17;;;13.70;99.90;;;14.15;100.00;97937.53;4925933;29;20541;-78
2023/05/11 09:08:02;;;;;;;2.20;1.23;;;13.70;99.90;;;14.18;100.00;97942.38;4927986;29;20479;-78
2023/05/11 09:10:31;;;;;;;3.83;1.77;;;13.70;99.90;;;14.22;100.00;97938.31;4925475;29;20499;-78
2023/05/11 09:12:59;;;;;;;7.00;1.23;;;13.70;99.90;;;14.28;100.00;97941.91;4926948;29;20517;-77
2023/05/11 09:15:28;;;;;;;1.53;1.30;;;13.80;99.90;;;14.28;100.00;97932.19;4926004;29;20542;-79
2023/05/11 09:18:04;;;;;;;1.30;1.20;;;13.70;99.90;;;14.32;100.00;97943.91;4926719;29;20513;-79
2023/05/11 09:20:34;;;;;;;1.73;0.90;;;13.70;99.90;;;14.38;100.00;97937.81;4926523;29;20478;-78
2023/05/11 09:23:04;;;;;;;2.20;1.13;;;13.70;99.90;;;14.44;100.00;97939.56;4926204;29;20505;-78
2023/05/11 09:25:33;;;;;;;1.40;1.20;;;13.80;99.90;;;14.44;100.00;97936.94;4926155;29;20498;-78
2023/05/11 09:28:02;;;;;;;1.40;1.10;;;13.80;99.90;;;14.48;100.00;97940.75;4925501;29;20547;-78
2023/05/11 09:30:31;;;;;;;1.10;1.00;;;13.80;99.90;;;14.49;100.00;97936.31;4927563;29;20470;-78
2023/05/11 09:33:02;;;;;;;1.27;1.17;;;13.90;99.90;;;14.50;100.00;97944.00;4926307;29;20481;-78
2023/05/11 09:35:33;;;;;;;1.00;0.90;;;13.80;99.90;;;14.49;100.00;97931.84;4926370;29;21353;-78
2023/05/11 09:38:06;;;;;;;1.23;1.10;;;13.90;99.90;;;14.50;100.00;97938.75;4925274;29;20550;-78
2023/05/11 09:40:38;;;;;;;1.10;1.00;;;13.90;99.90;;;14.54;100.00;97936.50;4926130;29;20471;-78
2023/05/11 09:43:20;;;;;;;1.50;1.03;;;14.00;99.90;;;14.53;100.00;97934.88;4925947;29;20513;-79
2023/05/11 09:45:51;;;;;;;1.40;1.10;;;13.90;99.90;;;14.55;100.00;97924.91;4926599;29;20474;-78
2023/05/11 09:48:30;;;;;;;1.20;1.10;;;13.90;99.90;;;14.59;100.00;97931.38;4926690;29;21004;-78
2023/05/11 09:51:03;;;;;;;3.27;1.60;;;13.90;99.90;;;14.60;100.00;97931.16;4926590;29;20466;-78
2023/05/11 09:53:41;;;;;;;1.63;1.37;;;14.00;99.90;;;14.62;100.00;97923.03;4924636;29;20489;-79
2023/05/11 09:56:11;;;;;;;1.10;0.97;;;14.00;99.90;;;14.61;100.00;97927.50;4926801;29;20549;-78
2023/05/11 09:58:49;;;;;;;1.30;1.00;;;14.00;99.90;;;14.64;100.00;97925.47;4925825;29;20525;-78
2023/05/11 10:01:29;;;;;;;17.27;1.67;;;14.00;99.90;;;14.64;100.00;97922.84;4924777;29;20469;-78
2023/05/11 10:04:00;;;;;;;2.07;1.20;;;14.00;99.90;;;14.64;100.00;97925.47;4926745;29;20521;-78
2023/05/11 10:06:52;;;;;;;1.20;1.10;;;14.00;99.90;;;14.62;100.00;97928.31;4926313;29;20990;-80
2023/05/11 10:09:27;;;;;;;3.43;1.17;;;14.00;99.90;;;14.57;100.00;97930.78;4925599;29;20486;-78
2023/05/11 10:11:56;;;;;;;1.23;1.13;;;14.00;99.90;;;14.60;100.00;97925.91;4924532;29;20482;-78
2023/05/11 10:14:28;;;;;;;1.40;1.30;;;14.00;99.90;;;14.64;100.00;97926.28;4926251;29;20474;-78
2023/05/11 10:17:01;;;;;;;1.57;1.30;;;14.00;99.90;;;14.64;100.00;97925.47;4926580;29;20475;-78
2023/05/11 10:19:30;;;;;;;1.27;1.10;;;13.90;99.90;;;14.64;100.00;97925.47;4925408;29;20470;-78
2023/05/11 10:22:02;;;;;;;1.30;1.20;;;13.90;99.90;;;14.64;100.00;97928.09;4925167;29;20535;-79
2023/05/11 10:24:33;;;;;;;13.03;1.37;;;13.90;99.90;;;14.67;100.00;97920.56;4925995;29;20471;-78
2023/05/11 10:27:02;;;;;;;1.20;1.10;;;14.00;99.90;;;14.68;100.00;97922.19;4928279;29;20561;-78
2023/05/11 10:29:32;;;;;;;2.03;1.30;;;14.00;99.90;;;14.73;100.00;97926.78;4930209;29;20959;-78
2023/05/11 10:32:03;;;;;;;1.13;1.03;;;14.00;99.90;;;14.74;100.00;97925.78;4928754;29;20476;-79
2023/05/11 10:34:33;;;;;;;1.13;0.97;;;14.00;99.90;;;14.78;100.00;97925.16;4930420;29;20896;-78
2023/05/11 10:37:02;;;;;;;1.77;1.20;;;14.10;99.90;;;14.82;100.00;97930.78;4927073;29;20470;-79